sensor_id;sensor_type;location;lat;lon;timestamp;P1;durP1;ratioP1;P2;durP2;ratioP2
49237;SDS011;35069;47.906;1.892;2023-12-20T00:02:21;4.13;;;3.78;;
49237;SDS011;35069;47.906;1.892;2023-12-20T00:04:46;5.95;;;3.70;;
49237;SDS011;35069;47.906;1.892;2023-12-20T00:07:12;4.43;;;4.03;;
49237;SDS011;35069;47.906;1.892;2023-12-20T00:09:37;5.20;;;4.47;;
49237;SDS011;35069;47.906;1.892;2023-12-20T00:12:03;4.43;;;4.03;;
49237;SDS011;35069;47.906;1.892;2023-12-20T00:14:29;5.93;;;4.63;;
49237;SDS011;35069;47.906;1.892;2023-12-20T00:16:54;5.45;;;4.90;;
49237;SDS011;35069;47.906;1.892;2023-12-20T00:19:20;6.35;;;4.93;;
49237;SDS011;35069;47.906;1.892;2023-12-20T00:21:45;7.38;;;5.07;;
49237;SDS011;35069;47.906;1.892;2023-12-20T00:24:11;10.60;;;6.40;;
49237;SDS011;35069;47.906;1.892;2023-12-20T00:26:36;7.85;;;6.00;;
49237;SDS011;35069;47.906;1.892;2023-12-20T00:29:02;5.32;;;4.63;;
49237;SDS011;35069;47.906;1.892;2023-12-20T00:31:28;5.80;;;5.00;;
49237;SDS011;35069;47.906;1.892;2023-12-20T00:33:53;6.43;;;5.50;;
49237;SDS011;35069;47.906;1.892;2023-12-20T00:36:19;5.57;;;5.05;;
49237;SDS011;35069;47.906;1.892;2023-12-20T00:38:45;7.32;;;5.00;;
49237;SDS011;35069;47.906;1.892;2023-12-20T00:59:55;4.88;;;3.67;;
49237;SDS011;35069;47.906;1.892;2023-12-20T01:02:20;4.35;;;3.10;;
49237;SDS011;35069;47.906;1.892;2023-12-20T01:04:46;4.18;;;3.28;;
49237;SDS011;35069;47.906;1.892;2023-12-20T01:07:11;4.10;;;3.00;;
49237;SDS011;35069;47.906;1.892;2023-12-20T01:09:37;3.90;;;3.25;;
49237;SDS011;35069;47.906;1.892;2023-12-20T01:12:03;7.38;;;3.05;;
49237;SDS011;35069;47.906;1.892;2023-12-20T01:14:28;3.45;;;3.10;;
49237;SDS011;35069;47.906;1.892;2023-12-20T01:16:54;4.03;;;2.97;;
49237;SDS011;35069;47.906;1.892;2023-12-20T01:19:19;3.47;;;3.17;;
49237;SDS011;35069;47.906;1.892;2023-12-20T01:21:45;5.75;;;4.57;;
49237;SDS011;35069;47.906;1.892;2023-12-20T01:24:10;4.55;;;3.83;;
49237;SDS011;35069;47.906;1.892;2023-12-20T01:26:36;7.32;;;4.47;;
49237;SDS011;35069;47.906;1.892;2023-12-20T01:29:02;5.82;;;4.10;;
49237;SDS011;35069;47.906;1.892;2023-12-20T01:31:28;6.97;;;4.95;;
49237;SDS011;35069;47.906;1.892;2023-12-20T01:33:53;6.22;;;4.57;;
49237;SDS011;35069;47.906;1.892;2023-12-20T01:36:19;6.72;;;4.00;;
49237;SDS011;35069;47.906;1.892;2023-12-20T01:38:44;6.28;;;3.50;;
49237;SDS011;35069;47.906;1.892;2023-12-20T01:41:10;4.20;;;3.47;;
49237;SDS011;35069;47.906;1.892;2023-12-20T01:43:35;6.15;;;4.20;;
49237;SDS011;35069;47.906;1.892;2023-12-20T01:46:01;4.28;;;3.55;;
49237;SDS011;35069;47.906;1.892;2023-12-20T01:48:28;8.25;;;3.65;;
49237;SDS011;35069;47.906;1.892;2023-12-20T01:50:54;4.72;;;3.00;;
49237;SDS011;35069;47.906;1.892;2023-12-20T01:53:21;5.82;;;3.90;;
49237;SDS011;35069;47.906;1.892;2023-12-20T01:55:48;9.00;;;3.75;;
49237;SDS011;35069;47.906;1.892;2023-12-20T01:58:17;6.45;;;3.78;;
49237;SDS011;35069;47.906;1.892;2023-12-20T02:00:43;5.28;;;3.40;;
49237;SDS011;35069;47.906;1.892;2023-12-20T02:03:09;9.43;;;4.03;;
49237;SDS011;35069;47.906;1.892;2023-12-20T02:05:37;6.43;;;4.05;;
49237;SDS011;35069;47.906;1.892;2023-12-20T02:08:03;6.25;;;3.72;;
49237;SDS011;35069;47.906;1.892;2023-12-20T02:10:30;4.95;;;3.42;;
49237;SDS011;35069;47.906;1.892;2023-12-20T02:12:56;4.20;;;3.60;;
49237;SDS011;35069;47.906;1.892;2023-12-20T02:15:22;6.22;;;3.17;;
49237;SDS011;35069;47.906;1.892;2023-12-20T02:17:48;3.85;;;2.55;;
49237;SDS011;35069;47.906;1.892;2023-12-20T02:20:14;4.47;;;2.05;;
49237;SDS011;35069;47.906;1.892;2023-12-20T02:22:40;7.10;;;2.75;;
49237;SDS011;35069;47.906;1.892;2023-12-20T02:35:12;10.73;;;2.75;;
49237;SDS011;35069;47.906;1.892;2023-12-20T02:37:37;7.53;;;2.17;;
49237;SDS011;35069;47.906;1.892;2023-12-20T02:40:03;11.13;;;2.00;;
49237;SDS011;35069;47.906;1.892;2023-12-20T02:42:29;7.57;;;2.70;;
49237;SDS011;35069;47.906;1.892;2023-12-20T02:44:54;9.55;;;2.15;;
49237;SDS011;35069;47.906;1.892;2023-12-20T02:47:20;8.15;;;2.80;;
49237;SDS011;35069;47.906;1.892;2023-12-20T02:49:46;7.68;;;2.03;;
49237;SDS011;35069;47.906;1.892;2023-12-20T02:52:11;9.65;;;1.92;;
49237;SDS011;35069;47.906;1.892;2023-12-20T02:54:37;6.85;;;1.88;;
49237;SDS011;35069;47.906;1.892;2023-12-20T02:57:02;9.77;;;2.45;;
49237;SDS011;35069;47.906;1.892;2023-12-20T02:59:28;10.18;;;2.30;;
49237;SDS011;35069;47.906;1.892;2023-12-20T03:01:54;11.27;;;1.58;;
49237;SDS011;35069;47.906;1.892;2023-12-20T03:04:19;5.47;;;2.20;;
49237;SDS011;35069;47.906;1.892;2023-12-20T03:06:45;6.90;;;1.92;;
49237;SDS011;35069;47.906;1.892;2023-12-20T03:09:10;16.13;;;2.53;;
49237;SDS011;35069;47.906;1.892;2023-12-20T03:11:36;5.75;;;1.63;;
49237;SDS011;35069;47.906;1.892;2023-12-20T03:14:01;5.50;;;1.90;;
49237;SDS011;35069;47.906;1.892;2023-12-20T03:16:27;7.75;;;2.08;;
49237;SDS011;35069;47.906;1.892;2023-12-20T03:18:52;5.72;;;2.10;;
49237;SDS011;35069;47.906;1.892;2023-12-20T03:21:18;4.53;;;2.10;;
49237;SDS011;35069;47.906;1.892;2023-12-20T03:23:44;7.22;;;1.80;;
49237;SDS011;35069;47.906;1.892;2023-12-20T03:26:10;8.98;;;1.88;;
49237;SDS011;35069;47.906;1.892;2023-12-20T03:28:36;4.72;;;1.85;;
49237;SDS011;35069;47.906;1.892;2023-12-20T03:31:02;11.57;;;2.67;;
49237;SDS011;35069;47.906;1.892;2023-12-20T03:33:28;13.55;;;2.00;;
49237;SDS011;35069;47.906;1.892;2023-12-20T03:58:43;6.03;;;1.38;;
49237;SDS011;35069;47.906;1.892;2023-12-20T04:01:11;8.82;;;1.63;;
49237;SDS011;35069;47.906;1.892;2023-12-20T04:03:37;10.82;;;1.85;;
49237;SDS011;35069;47.906;1.892;2023-12-20T04:06:05;8.82;;;2.20;;
49237;SDS011;35069;47.906;1.892;2023-12-20T04:08:31;7.50;;;1.55;;
49237;SDS011;35069;47.906;1.892;2023-12-20T04:10:56;10.55;;;2.03;;
49237;SDS011;35069;47.906;1.892;2023-12-20T04:13:22;8.30;;;1.95;;
49237;SDS011;35069;47.906;1.892;2023-12-20T04:15:47;6.55;;;1.40;;
49237;SDS011;35069;47.906;1.892;2023-12-20T04:18:15;5.03;;;1.70;;
49237;SDS011;35069;47.906;1.892;2023-12-20T04:20:40;5.20;;;1.83;;
49237;SDS011;35069;47.906;1.892;2023-12-20T04:23:06;13.95;;;1.83;;
49237;SDS011;35069;47.906;1.892;2023-12-20T04:25:31;11.82;;;2.40;;
49237;SDS011;35069;47.906;1.892;2023-12-20T04:27:57;9.18;;;2.53;;
49237;SDS011;35069;47.906;1.892;2023-12-20T04:30:23;7.28;;;1.90;;
49237;SDS011;35069;47.906;1.892;2023-12-20T04:32:48;9.98;;;2.10;;
49237;SDS011;35069;47.906;1.892;2023-12-20T04:35:14;8.20;;;1.65;;
49237;SDS011;35069;47.906;1.892;2023-12-20T04:37:39;6.28;;;1.77;;
49237;SDS011;35069;47.906;1.892;2023-12-20T04:40:05;5.65;;;1.75;;
49237;SDS011;35069;47.906;1.892;2023-12-20T04:42:31;9.52;;;1.70;;
49237;SDS011;35069;47.906;1.892;2023-12-20T04:44:56;10.93;;;1.83;;
49237;SDS011;35069;47.906;1.892;2023-12-20T04:47:22;14.02;;;2.25;;
49237;SDS011;35069;47.906;1.892;2023-12-20T04:49:48;7.22;;;2.00;;
49237;SDS011;35069;47.906;1.892;2023-12-20T04:52:13;12.82;;;2.17;;
49237;SDS011;35069;47.906;1.892;2023-12-20T04:54:39;6.80;;;2.35;;
49237;SDS011;35069;47.906;1.892;2023-12-20T04:57:05;8.27;;;2.45;;
49237;SDS011;35069;47.906;1.892;2023-12-20T04:59:30;7.80;;;2.15;;
49237;SDS011;35069;47.906;1.892;2023-12-20T05:01:56;11.30;;;2.00;;
49237;SDS011;35069;47.906;1.892;2023-12-20T05:04:22;7.68;;;1.60;;
49237;SDS011;35069;47.906;1.892;2023-12-20T05:06:48;6.68;;;1.80;;
49237;SDS011;35069;47.906;1.892;2023-12-20T05:09:15;7.03;;;2.08;;
49237;SDS011;35069;47.906;1.892;2023-12-20T05:11:40;6.75;;;2.25;;
49237;SDS011;35069;47.906;1.892;2023-12-20T05:14:06;4.78;;;1.88;;
49237;SDS011;35069;47.906;1.892;2023-12-20T05:16:32;4.85;;;1.52;;
49237;SDS011;35069;47.906;1.892;2023-12-20T05:18:57;8.82;;;2.15;;
49237;SDS011;35069;47.906;1.892;2023-12-20T05:21:25;7.20;;;2.10;;
49237;SDS011;35069;47.906;1.892;2023-12-20T05:23:51;11.95;;;2.20;;
49237;SDS011;35069;47.906;1.892;2023-12-20T05:26:16;11.43;;;2.17;;
49237;SDS011;35069;47.906;1.892;2023-12-20T05:28:42;11.35;;;2.10;;
49237;SDS011;35069;47.906;1.892;2023-12-20T05:31:08;10.85;;;2.72;;
49237;SDS011;35069;47.906;1.892;2023-12-20T05:33:34;7.15;;;2.22;;
49237;SDS011;35069;47.906;1.892;2023-12-20T05:35:59;7.93;;;2.28;;
49237;SDS011;35069;47.906;1.892;2023-12-20T05:38:25;16.83;;;2.15;;
49237;SDS011;35069;47.906;1.892;2023-12-20T05:40:51;11.43;;;2.42;;
49237;SDS011;35069;47.906;1.892;2023-12-20T05:43:16;10.35;;;2.42;;
49237;SDS011;35069;47.906;1.892;2023-12-20T05:52:39;8.38;;;2.95;;
49237;SDS011;35069;47.906;1.892;2023-12-20T05:55:04;9.98;;;2.75;;
49237;SDS011;35069;47.906;1.892;2023-12-20T05:57:30;14.20;;;2.97;;
49237;SDS011;35069;47.906;1.892;2023-12-20T05:59:56;10.10;;;2.00;;
49237;SDS011;35069;47.906;1.892;2023-12-20T06:02:21;5.28;;;1.92;;
49237;SDS011;35069;47.906;1.892;2023-12-20T06:04:47;10.30;;;2.08;;
49237;SDS011;35069;47.906;1.892;2023-12-20T06:07:12;9.82;;;2.72;;
49237;SDS011;35069;47.906;1.892;2023-12-20T06:09:38;9.57;;;2.88;;
49237;SDS011;35069;47.906;1.892;2023-12-20T06:12:04;10.40;;;2.83;;
49237;SDS011;35069;47.906;1.892;2023-12-20T06:14:30;8.50;;;2.78;;
49237;SDS011;35069;47.906;1.892;2023-12-20T06:16:55;7.53;;;3.17;;
49237;SDS011;35069;47.906;1.892;2023-12-20T06:19:21;11.75;;;3.03;;
49237;SDS011;35069;47.906;1.892;2023-12-20T06:21:47;10.75;;;2.80;;
49237;SDS011;35069;47.906;1.892;2023-12-20T06:24:13;6.63;;;2.47;;
49237;SDS011;35069;47.906;1.892;2023-12-20T06:26:38;7.50;;;2.55;;
49237;SDS011;35069;47.906;1.892;2023-12-20T06:29:04;6.00;;;2.50;;
49237;SDS011;35069;47.906;1.892;2023-12-20T06:31:30;10.38;;;2.40;;
49237;SDS011;35069;47.906;1.892;2023-12-20T06:33:57;8.30;;;2.25;;
49237;SDS011;35069;47.906;1.892;2023-12-20T06:36:24;8.85;;;2.47;;
49237;SDS011;35069;47.906;1.892;2023-12-20T06:38:50;15.55;;;2.33;;
49237;SDS011;35069;47.906;1.892;2023-12-20T06:41:16;12.05;;;2.10;;
49237;SDS011;35069;47.906;1.892;2023-12-20T06:43:42;7.95;;;3.17;;
49237;SDS011;35069;47.906;1.892;2023-12-20T06:46:07;13.77;;;2.40;;
49237;SDS011;35069;47.906;1.892;2023-12-20T06:48:33;19.23;;;2.95;;
49237;SDS011;35069;47.906;1.892;2023-12-20T06:51:00;6.10;;;2.20;;
49237;SDS011;35069;47.906;1.892;2023-12-20T07:05:21;6.60;;;2.25;;
49237;SDS011;35069;47.906;1.892;2023-12-20T07:07:47;9.25;;;2.78;;
49237;SDS011;35069;47.906;1.892;2023-12-20T07:10:13;15.80;;;4.57;;
49237;SDS011;35069;47.906;1.892;2023-12-20T07:12:38;15.07;;;4.70;;
49237;SDS011;35069;47.906;1.892;2023-12-20T07:15:04;20.80;;;7.35;;
49237;SDS011;35069;47.906;1.892;2023-12-20T07:17:33;14.55;;;6.28;;
49237;SDS011;35069;47.906;1.892;2023-12-20T07:19:59;16.83;;;6.40;;
49237;SDS011;35069;47.906;1.892;2023-12-20T07:22:32;16.33;;;6.70;;
49237;SDS011;35069;47.906;1.892;2023-12-20T07:24:58;14.73;;;6.60;;
49237;SDS011;35069;47.906;1.892;2023-12-20T07:27:24;11.73;;;5.75;;
49237;SDS011;35069;47.906;1.892;2023-12-20T07:29:50;14.15;;;5.55;;
49237;SDS011;35069;47.906;1.892;2023-12-20T07:32:16;17.27;;;5.40;;
49237;SDS011;35069;47.906;1.892;2023-12-20T07:34:41;15.52;;;5.18;;
49237;SDS011;35069;47.906;1.892;2023-12-20T07:37:07;10.32;;;4.47;;
49237;SDS011;35069;47.906;1.892;2023-12-20T07:39:35;17.55;;;5.65;;
49237;SDS011;35069;47.906;1.892;2023-12-20T07:42:00;12.93;;;5.15;;
49237;SDS011;35069;47.906;1.892;2023-12-20T07:44:26;16.95;;;4.25;;
49237;SDS011;35069;47.906;1.892;2023-12-20T07:46:52;14.85;;;4.22;;
49237;SDS011;35069;47.906;1.892;2023-12-20T07:49:18;9.10;;;3.65;;
49237;SDS011;35069;47.906;1.892;2023-12-20T07:51:44;12.75;;;4.97;;
49237;SDS011;35069;47.906;1.892;2023-12-20T07:54:09;12.18;;;4.32;;
49237;SDS011;35069;47.906;1.892;2023-12-20T07:56:35;18.75;;;4.60;;
49237;SDS011;35069;47.906;1.892;2023-12-20T07:59:01;11.43;;;4.57;;
49237;SDS011;35069;47.906;1.892;2023-12-20T08:01:26;15.18;;;4.15;;
49237;SDS011;35069;47.906;1.892;2023-12-20T08:03:52;9.32;;;3.88;;
49237;SDS011;35069;47.906;1.892;2023-12-20T08:27:26;13.05;;;4.53;;
49237;SDS011;35069;47.906;1.892;2023-12-20T08:29:52;10.98;;;4.72;;
49237;SDS011;35069;47.906;1.892;2023-12-20T08:32:17;10.05;;;4.65;;
49237;SDS011;35069;47.906;1.892;2023-12-20T08:34:43;15.43;;;5.28;;
49237;SDS011;35069;47.906;1.892;2023-12-20T08:37:08;9.43;;;4.03;;
49237;SDS011;35069;47.906;1.892;2023-12-20T08:39:34;11.13;;;5.47;;
49237;SDS011;35069;47.906;1.892;2023-12-20T08:41:59;15.82;;;4.88;;
49237;SDS011;35069;47.906;1.892;2023-12-20T08:44:25;15.70;;;4.90;;
49237;SDS011;35069;47.906;1.892;2023-12-20T08:46:51;14.48;;;4.70;;
49237;SDS011;35069;47.906;1.892;2023-12-20T08:49:16;9.25;;;5.07;;
49237;SDS011;35069;47.906;1.892;2023-12-20T08:51:42;11.40;;;4.95;;
49237;SDS011;35069;47.906;1.892;2023-12-20T08:54:07;16.17;;;5.47;;
49237;SDS011;35069;47.906;1.892;2023-12-20T08:56:33;16.85;;;5.07;;
49237;SDS011;35069;47.906;1.892;2023-12-20T08:58:59;13.57;;;5.13;;
49237;SDS011;35069;47.906;1.892;2023-12-20T09:01:25;11.82;;;4.50;;
49237;SDS011;35069;47.906;1.892;2023-12-20T09:03:50;13.98;;;5.22;;
49237;SDS011;35069;47.906;1.892;2023-12-20T09:06:16;15.85;;;5.15;;
49237;SDS011;35069;47.906;1.892;2023-12-20T09:08:41;14.52;;;4.78;;
49237;SDS011;35069;47.906;1.892;2023-12-20T09:11:07;9.95;;;4.47;;
49237;SDS011;35069;47.906;1.892;2023-12-20T09:13:32;16.05;;;4.88;;
49237;SDS011;35069;47.906;1.892;2023-12-20T09:15:58;15.70;;;5.15;;
49237;SDS011;35069;47.906;1.892;2023-12-20T09:18:24;10.73;;;4.32;;
49237;SDS011;35069;47.906;1.892;2023-12-20T09:20:51;6.93;;;3.25;;
49237;SDS011;35069;47.906;1.892;2023-12-20T09:23:17;16.80;;;4.57;;
49237;SDS011;35069;47.906;1.892;2023-12-20T09:25:43;11.55;;;3.67;;
49237;SDS011;35069;47.906;1.892;2023-12-20T09:28:09;11.38;;;4.60;;
49237;SDS011;35069;47.906;1.892;2023-12-20T10:22:29;8.65;;;2.22;;
49237;SDS011;35069;47.906;1.892;2023-12-20T10:24:56;10.52;;;3.80;;
49237;SDS011;35069;47.906;1.892;2023-12-20T10:27:21;9.93;;;2.33;;
49237;SDS011;35069;47.906;1.892;2023-12-20T10:29:47;12.35;;;3.08;;
49237;SDS011;35069;47.906;1.892;2023-12-20T10:32:26;14.23;;;5.75;;
49237;SDS011;35069;47.906;1.892;2023-12-20T10:34:52;9.00;;;2.35;;
49237;SDS011;35069;47.906;1.892;2023-12-20T10:37:19;11.57;;;2.90;;
49237;SDS011;35069;47.906;1.892;2023-12-20T10:39:52;9.52;;;3.28;;
49237;SDS011;35069;47.906;1.892;2023-12-20T10:42:22;10.45;;;3.10;;
49237;SDS011;35069;47.906;1.892;2023-12-20T10:44:51;7.28;;;3.00;;
49237;SDS011;35069;47.906;1.892;2023-12-20T10:47:18;10.32;;;3.53;;
49237;SDS011;35069;47.906;1.892;2023-12-20T10:49:44;5.75;;;1.85;;
49237;SDS011;35069;47.906;1.892;2023-12-20T10:52:11;7.63;;;2.33;;
49237;SDS011;35069;47.906;1.892;2023-12-20T10:54:38;11.18;;;3.05;;
49237;SDS011;35069;47.906;1.892;2023-12-20T10:57:05;9.48;;;3.53;;
49237;SDS011;35069;47.906;1.892;2023-12-20T10:59:33;8.15;;;3.15;;
49237;SDS011;35069;47.906;1.892;2023-12-20T11:02:01;8.40;;;2.88;;
49237;SDS011;35069;47.906;1.892;2023-12-20T11:04:34;9.48;;;2.72;;
49237;SDS011;35069;47.906;1.892;2023-12-20T11:07:08;4.53;;;2.20;;
49237;SDS011;35069;47.906;1.892;2023-12-20T11:09:46;9.68;;;2.92;;
49237;SDS011;35069;47.906;1.892;2023-12-20T11:13:03;12.45;;;3.20;;
49237;SDS011;35069;47.906;1.892;2023-12-20T11:15:15;10.75;;;2.72;;
49237;SDS011;35069;47.906;1.892;2023-12-20T11:17:41;9.50;;;3.05;;
49237;SDS011;35069;47.906;1.892;2023-12-20T11:20:11;13.82;;;3.42;;
49237;SDS011;35069;47.906;1.892;2023-12-20T11:22:37;15.55;;;3.95;;
49237;SDS011;35069;47.906;1.892;2023-12-20T11:43:47;8.82;;;2.58;;
49237;SDS011;35069;47.906;1.892;2023-12-20T11:46:13;12.52;;;3.90;;
49237;SDS011;35069;47.906;1.892;2023-12-20T11:48:38;12.63;;;3.80;;
49237;SDS011;35069;47.906;1.892;2023-12-20T11:51:12;19.50;;;4.07;;
49237;SDS011;35069;47.906;1.892;2023-12-20T11:53:38;12.77;;;3.75;;
49237;SDS011;35069;47.906;1.892;2023-12-20T11:56:07;13.82;;;2.83;;
49237;SDS011;35069;47.906;1.892;2023-12-20T11:58:34;14.07;;;4.95;;
49237;SDS011;35069;47.906;1.892;2023-12-20T12:01:00;9.82;;;2.70;;
49237;SDS011;35069;47.906;1.892;2023-12-20T12:03:29;10.02;;;2.92;;
49237;SDS011;35069;47.906;1.892;2023-12-20T12:05:55;9.40;;;3.72;;
49237;SDS011;35069;47.906;1.892;2023-12-20T12:08:20;11.52;;;2.85;;
49237;SDS011;35069;47.906;1.892;2023-12-20T12:10:46;13.10;;;3.08;;
49237;SDS011;35069;47.906;1.892;2023-12-20T12:13:12;15.75;;;3.63;;
49237;SDS011;35069;47.906;1.892;2023-12-20T12:15:39;9.18;;;2.58;;
49237;SDS011;35069;47.906;1.892;2023-12-20T12:18:07;8.52;;;2.17;;
49237;SDS011;35069;47.906;1.892;2023-12-20T12:20:33;9.77;;;2.47;;
49237;SDS011;35069;47.906;1.892;2023-12-20T12:22:59;12.48;;;2.97;;
49237;SDS011;35069;47.906;1.892;2023-12-20T12:25:26;13.13;;;3.22;;
49237;SDS011;35069;47.906;1.892;2023-12-20T12:27:52;12.35;;;3.00;;
49237;SDS011;35069;47.906;1.892;2023-12-20T12:30:18;10.13;;;3.05;;
49237;SDS011;35069;47.906;1.892;2023-12-20T12:32:44;11.10;;;2.40;;
49237;SDS011;35069;47.906;1.892;2023-12-20T12:35:09;8.57;;;2.20;;
49237;SDS011;35069;47.906;1.892;2023-12-20T12:37:37;9.88;;;2.50;;
49237;SDS011;35069;47.906;1.892;2023-12-20T12:40:05;10.68;;;3.15;;
49237;SDS011;35069;47.906;1.892;2023-12-20T12:42:41;14.10;;;3.75;;
49237;SDS011;35069;47.906;1.892;2023-12-20T12:45:08;16.15;;;2.88;;
49237;SDS011;35069;47.906;1.892;2023-12-20T12:47:35;7.85;;;2.58;;
49237;SDS011;35069;47.906;1.892;2023-12-20T12:50:00;15.40;;;3.25;;
49237;SDS011;35069;47.906;1.892;2023-12-20T12:52:26;10.95;;;3.00;;
49237;SDS011;35069;47.906;1.892;2023-12-20T12:54:52;14.40;;;2.55;;
49237;SDS011;35069;47.906;1.892;2023-12-20T15:32:22;13.73;;;3.40;;
49237;SDS011;35069;47.906;1.892;2023-12-20T15:34:48;15.73;;;3.00;;
49237;SDS011;35069;47.906;1.892;2023-12-20T15:37:14;28.15;;;5.20;;
49237;SDS011;35069;47.906;1.892;2023-12-20T15:39:41;20.17;;;3.63;;
49237;SDS011;35069;47.906;1.892;2023-12-20T15:42:07;19.33;;;3.67;;
49237;SDS011;35069;47.906;1.892;2023-12-20T15:44:32;12.68;;;3.65;;
49237;SDS011;35069;47.906;1.892;2023-12-20T15:46:58;14.35;;;3.88;;
49237;SDS011;35069;47.906;1.892;2023-12-20T15:49:24;11.88;;;2.88;;
49237;SDS011;35069;47.906;1.892;2023-12-20T15:51:49;11.93;;;3.17;;
49237;SDS011;35069;47.906;1.892;2023-12-20T15:54:15;10.07;;;3.53;;
49237;SDS011;35069;47.906;1.892;2023-12-20T15:56:40;14.48;;;5.05;;
49237;SDS011;35069;47.906;1.892;2023-12-20T15:59:09;12.90;;;4.95;;
49237;SDS011;35069;47.906;1.892;2023-12-20T16:01:35;9.38;;;3.88;;
49237;SDS011;35069;47.906;1.892;2023-12-20T16:04:01;11.57;;;4.00;;
49237;SDS011;35069;47.906;1.892;2023-12-20T16:06:27;15.30;;;4.60;;
49237;SDS011;35069;47.906;1.892;2023-12-20T16:08:52;12.68;;;4.53;;
49237;SDS011;35069;47.906;1.892;2023-12-20T16:11:18;15.10;;;6.15;;
49237;SDS011;35069;47.906;1.892;2023-12-20T16:13:44;12.13;;;5.03;;
49237;SDS011;35069;47.906;1.892;2023-12-20T16:16:10;18.27;;;5.28;;
49237;SDS011;35069;47.906;1.892;2023-12-20T16:18:36;19.58;;;5.35;;
49237;SDS011;35069;47.906;1.892;2023-12-20T16:21:01;22.00;;;6.28;;
49237;SDS011;35069;47.906;1.892;2023-12-20T16:23:28;17.45;;;6.45;;
49237;SDS011;35069;47.906;1.892;2023-12-20T16:25:54;17.27;;;6.80;;
49237;SDS011;35069;47.906;1.892;2023-12-20T16:28:19;23.98;;;6.75;;
49237;SDS011;35069;47.906;1.892;2023-12-20T16:30:45;13.07;;;4.53;;
49237;SDS011;35069;47.906;1.892;2023-12-20T16:33:12;22.35;;;5.50;;
49237;SDS011;35069;47.906;1.892;2023-12-20T16:35:38;23.40;;;5.80;;
49237;SDS011;35069;47.906;1.892;2023-12-20T16:38:04;13.75;;;4.18;;
49237;SDS011;35069;47.906;1.892;2023-12-20T16:40:30;16.67;;;4.22;;
49237;SDS011;35069;47.906;1.892;2023-12-20T16:42:55;15.98;;;4.68;;
49237;SDS011;35069;47.906;1.892;2023-12-20T16:45:21;9.88;;;4.15;;
49237;SDS011;35069;47.906;1.892;2023-12-20T16:47:47;16.25;;;4.70;;
49237;SDS011;35069;47.906;1.892;2023-12-20T16:50:13;22.08;;;4.00;;
49237;SDS011;35069;47.906;1.892;2023-12-20T16:52:39;12.82;;;4.38;;
49237;SDS011;35069;47.906;1.892;2023-12-20T16:55:07;12.25;;;4.13;;
49237;SDS011;35069;47.906;1.892;2023-12-20T16:57:34;15.35;;;4.50;;
49237;SDS011;35069;47.906;1.892;2023-12-20T17:00:00;18.95;;;4.45;;
49237;SDS011;35069;47.906;1.892;2023-12-20T17:20:39;14.00;;;4.18;;
49237;SDS011;35069;47.906;1.892;2023-12-20T20:57:42;10.38;;;5.43;;
49237;SDS011;35069;47.906;1.892;2023-12-20T21:00:16;15.38;;;4.47;;
49237;SDS011;35069;47.906;1.892;2023-12-20T21:39:06;15.68;;;5.57;;
49237;SDS011;35069;47.906;1.892;2023-12-20T21:41:32;17.50;;;5.05;;
49237;SDS011;35069;47.906;1.892;2023-12-20T21:43:57;15.18;;;5.40;;
49237;SDS011;35069;47.906;1.892;2023-12-20T21:46:23;10.55;;;4.93;;
49237;SDS011;35069;47.906;1.892;2023-12-20T21:48:50;13.57;;;5.65;;
49237;SDS011;35069;47.906;1.892;2023-12-20T21:51:16;11.52;;;5.35;;
49237;SDS011;35069;47.906;1.892;2023-12-20T21:53:45;13.93;;;6.03;;
49237;SDS011;35069;47.906;1.892;2023-12-20T21:56:13;12.98;;;5.35;;
49237;SDS011;35069;47.906;1.892;2023-12-20T21:58:39;12.85;;;6.18;;
49237;SDS011;35069;47.906;1.892;2023-12-20T22:01:04;11.25;;;6.07;;
49237;SDS011;35069;47.906;1.892;2023-12-20T22:03:30;19.25;;;5.97;;
49237;SDS011;35069;47.906;1.892;2023-12-20T22:05:56;13.73;;;5.05;;
49237;SDS011;35069;47.906;1.892;2023-12-20T22:08:24;9.45;;;5.30;;
49237;SDS011;35069;47.906;1.892;2023-12-20T22:10:50;7.20;;;4.78;;
49237;SDS011;35069;47.906;1.892;2023-12-20T22:13:15;11.88;;;5.78;;
49237;SDS011;35069;47.906;1.892;2023-12-20T22:15:41;9.60;;;5.38;;
49237;SDS011;35069;47.906;1.892;2023-12-20T22:18:07;11.80;;;5.25;;
49237;SDS011;35069;47.906;1.892;2023-12-20T22:20:33;14.02;;;4.40;;
49237;SDS011;35069;47.906;1.892;2023-12-20T22:22:59;7.25;;;4.63;;
49237;SDS011;35069;47.906;1.892;2023-12-20T22:25:27;12.82;;;5.18;;
49237;SDS011;35069;47.906;1.892;2023-12-20T22:27:52;14.55;;;5.45;;
49237;SDS011;35069;47.906;1.892;2023-12-20T22:30:18;7.55;;;5.43;;
49237;SDS011;35069;47.906;1.892;2023-12-20T22:32:43;7.65;;;5.30;;
49237;SDS011;35069;47.906;1.892;2023-12-20T22:35:09;15.10;;;5.35;;
49237;SDS011;35069;47.906;1.892;2023-12-20T22:37:37;14.85;;;6.50;;
49237;SDS011;35069;47.906;1.892;2023-12-20T22:40:02;9.80;;;5.10;;
49237;SDS011;35069;47.906;1.892;2023-12-20T22:51:42;13.07;;;4.55;;
49237;SDS011;35069;47.906;1.892;2023-12-20T22:54:15;8.60;;;4.13;;
49237;SDS011;35069;47.906;1.892;2023-12-20T22:56:59;9.20;;;5.55;;
49237;SDS011;35069;47.906;1.892;2023-12-20T22:59:40;9.82;;;5.40;;
49237;SDS011;35069;47.906;1.892;2023-12-20T23:02:20;7.72;;;4.88;;
49237;SDS011;35069;47.906;1.892;2023-12-20T23:05:04;7.38;;;5.15;;
49237;SDS011;35069;47.906;1.892;2023-12-20T23:07:39;9.48;;;5.70;;
49237;SDS011;35069;47.906;1.892;2023-12-20T23:10:15;12.18;;;5.90;;
49237;SDS011;35069;47.906;1.892;2023-12-20T23:13:01;12.00;;;5.80;;
49237;SDS011;35069;47.906;1.892;2023-12-20T23:27:18;12.05;;;5.82;;
49237;SDS011;35069;47.906;1.892;2023-12-20T23:30:18;12.32;;;5.53;;
49237;SDS011;35069;47.906;1.892;2023-12-20T23:33:11;10.57;;;5.43;;
49237;SDS011;35069;47.906;1.892;2023-12-20T23:36:03;7.97;;;4.90;;
49237;SDS011;35069;47.906;1.892;2023-12-20T23:44:47;9.13;;;4.45;;
49237;SDS011;35069;47.906;1.892;2023-12-20T23:47:25;10.73;;;5.03;;
49237;SDS011;35069;47.906;1.892;2023-12-20T23:50:00;9.68;;;4.35;;
49237;SDS011;35069;47.906;1.892;2023-12-20T23:52:37;10.00;;;5.00;;
49237;SDS011;35069;47.906;1.892;2023-12-20T23:55:08;10.77;;;3.97;;
49237;SDS011;35069;47.906;1.892;2023-12-20T23:57:52;8.95;;;4.65;;
